createdAt,value
2022-12-11T18:32:51.593Z,5
2022-12-11T18:33:51.378Z,19
2022-12-11T18:34:51.306Z,30
2022-12-11T18:35:51.274Z,13
2022-12-11T18:36:51.396Z,36
2022-12-11T18:37:51.576Z,43
2022-12-11T18:38:51.297Z,26
2022-12-11T18:39:51.387Z,51
2022-12-11T18:40:51.370Z,46
2022-12-11T18:42:09.918Z,47
2022-12-11T18:42:51.572Z,26
2022-12-11T18:43:51.365Z,55
2022-12-11T18:44:51.370Z,51
2022-12-11T18:45:51.393Z,63
2022-12-11T18:46:51.402Z,26
2022-12-11T18:47:51.574Z,30
2022-12-11T18:48:51.408Z,56
2022-12-11T18:49:51.442Z,60
2022-12-11T18:50:51.397Z,58
2022-12-11T18:51:51.358Z,58
2022-12-11T18:52:51.550Z,29
2022-12-11T18:53:51.404Z,26
2022-12-11T18:54:51.384Z,52
2022-12-11T18:55:54.582Z,59
2022-12-11T18:56:51.388Z,21
2022-12-11T18:57:51.571Z,47
2022-12-11T18:58:51.362Z,30
2022-12-11T18:59:51.578Z,54
2022-12-11T19:00:51.407Z,52
2022-12-11T19:01:51.408Z,30
2022-12-11T19:02:51.556Z,28
2022-12-11T19:03:51.499Z,21
2022-12-11T19:04:51.377Z,46
2022-12-11T19:05:51.384Z,19
2022-12-11T19:06:51.390Z,1
2022-12-11T19:07:51.632Z,37
2022-12-11T19:08:51.401Z,10
2022-12-11T19:09:51.373Z,14
2022-12-11T19:10:51.369Z,15
2022-12-11T19:11:51.382Z,33
2022-12-11T19:12:51.584Z,42
2022-12-11T19:13:51.403Z,17
2022-12-11T19:14:51.387Z,19
2022-12-11T19:15:51.497Z,38
2022-12-11T19:16:51.429Z,12
2022-12-11T19:17:51.566Z,30
2022-12-11T19:18:51.399Z,51
2022-12-11T19:19:51.363Z,22
2022-12-11T19:20:55.596Z,44
2022-12-11T19:21:51.416Z,41
2022-12-11T19:22:51.579Z,43
2022-12-11T19:23:51.394Z,15
2022-12-11T19:24:51.380Z,14
2022-12-11T19:25:51.408Z,14
2022-12-11T19:26:51.382Z,37
2022-12-11T19:27:51.585Z,36
2022-12-11T19:28:51.396Z,12
2022-12-11T19:29:51.369Z,35
2022-12-11T19:30:51.368Z,38
2022-12-11T19:31:51.401Z,5
2022-12-11T19:32:51.582Z,36
2022-12-11T19:33:51.393Z,39
2022-12-11T19:34:51.370Z,17
2022-12-11T19:35:51.434Z,27
2022-12-11T19:36:51.428Z,6
2022-12-11T19:37:51.564Z,28
2022-12-11T19:38:51.405Z,6
2022-12-11T19:39:51.399Z,3
2022-12-11T19:40:51.446Z,5
2022-12-11T19:41:51.398Z,32
2022-12-11T19:42:51.594Z,29
2022-12-11T19:43:51.409Z,18
2022-12-11T19:44:51.390Z,42
2022-12-11T19:45:51.406Z,20
2022-12-11T19:46:51.415Z,39
2022-12-11T19:47:51.565Z,12
2022-12-11T19:48:51.397Z,28
2022-12-11T19:49:51.377Z,8
2022-12-11T19:50:51.397Z,28
2022-12-11T19:51:51.375Z,29
2022-12-11T19:52:51.559Z,28
2022-12-11T19:53:51.392Z,6
2022-12-11T19:54:51.410Z,5
2022-12-11T19:55:51.396Z,28
2022-12-11T19:56:51.383Z,9
2022-12-11T19:57:51.591Z,32
2022-12-11T19:58:51.423Z,17
2022-12-11T19:59:56.895Z,38
2022-12-11T20:00:51.449Z,43
2022-12-11T20:01:51.456Z,33
2022-12-11T20:02:51.590Z,39
2022-12-11T20:03:51.434Z,42
2022-12-11T20:04:51.414Z,20
2022-12-11T20:05:51.419Z,16
2022-12-11T20:06:51.384Z,39
2022-12-11T20:07:51.605Z,16
2022-12-11T20:08:51.450Z,37
2022-12-11T20:09:51.388Z,12
2022-12-11T20:10:51.417Z,30
2022-12-11T20:11:51.401Z,31
2022-12-11T20:12:51.598Z,11
2022-12-11T20:13:51.452Z,5
2022-12-11T20:14:51.420Z,1
2022-12-11T20:15:51.391Z,19
2022-12-11T20:17:11.238Z,21
2022-12-11T20:17:51.569Z,1
2022-12-11T20:18:51.426Z,2
2022-12-11T20:19:51.416Z,4
2022-12-11T20:20:51.411Z,0
2022-12-11T20:21:51.422Z,14
2022-12-11T20:22:51.595Z,0
2022-12-11T20:23:51.387Z,21
2022-12-11T20:24:51.386Z,3
2022-12-11T20:25:54.558Z,21
2022-12-11T20:26:51.393Z,20
2022-12-11T20:27:51.606Z,23
2022-12-11T20:28:51.424Z,11
2022-12-11T20:29:51.414Z,26
2022-12-11T20:30:51.420Z,9
2022-12-11T20:31:51.475Z,4
2022-12-11T20:32:51.595Z,3
2022-12-11T20:33:51.452Z,1
2022-12-11T20:34:51.478Z,1
2022-12-11T20:35:51.389Z,12
2022-12-11T20:36:51.396Z,1
2022-12-11T20:37:51.604Z,17
2022-12-11T20:38:51.395Z,15
2022-12-11T20:39:51.414Z,18
2022-12-11T20:40:51.427Z,21
2022-12-11T20:41:51.393Z,13
2022-12-11T20:42:51.604Z,3
2022-12-11T20:43:51.421Z,6
2022-12-11T20:44:51.405Z,8
2022-12-11T20:45:51.446Z,0
2022-12-11T20:46:51.500Z,5
2022-12-11T20:47:51.619Z,0
2022-12-11T20:48:51.425Z,2
2022-12-11T20:49:51.430Z,18
2022-12-11T20:50:51.440Z,20
2022-12-11T20:51:51.420Z,4
2022-12-11T20:52:51.581Z,23
2022-12-11T20:53:51.403Z,7
2022-12-11T20:54:51.426Z,32
2022-12-11T20:55:51.418Z,9
2022-12-11T20:56:51.431Z,27
2022-12-11T20:57:51.605Z,29
2022-12-11T20:58:51.399Z,9
2022-12-11T20:59:51.433Z,11
2022-12-11T21:00:51.437Z,29
2022-12-11T21:01:51.430Z,33
2022-12-11T21:02:51.584Z,8
2022-12-11T21:03:51.432Z,28
2022-12-11T21:04:51.407Z,8
2022-12-11T21:05:51.455Z,30
2022-12-11T21:06:51.408Z,23
2022-12-11T21:07:51.592Z,6
2022-12-11T21:08:51.402Z,25
2022-12-11T21:09:51.408Z,6
2022-12-11T21:10:51.420Z,7
2022-12-11T21:11:51.438Z,9
2022-12-11T21:12:51.619Z,21
2022-12-11T21:13:51.409Z,9
2022-12-11T21:14:51.432Z,28
2022-12-11T21:15:51.430Z,6
2022-12-11T21:16:51.428Z,20
2022-12-11T21:17:51.620Z,15
2022-12-11T21:18:51.436Z,19
2022-12-11T21:19:51.434Z,18
2022-12-11T21:20:51.437Z,5
2022-12-11T21:21:51.411Z,21
2022-12-11T21:22:51.617Z,5
2022-12-11T21:23:51.419Z,11
2022-12-11T21:24:51.409Z,15
2022-12-11T21:25:51.408Z,15
2022-12-11T21:26:51.415Z,3
2022-12-11T21:27:51.601Z,3
2022-12-11T21:28:51.413Z,15
2022-12-11T21:29:51.435Z,12
2022-12-11T21:30:51.414Z,3
2022-12-11T21:31:51.494Z,8
2022-12-11T21:32:51.589Z,12
2022-12-11T21:33:51.441Z,3
2022-12-11T21:34:51.433Z,3
2022-12-11T21:35:51.445Z,3
2022-12-11T21:36:51.450Z,3
2022-12-11T21:37:51.618Z,3
2022-12-11T21:38:51.447Z,0
2022-12-11T21:39:51.437Z,0
2022-12-11T21:40:51.421Z,0
2022-12-11T21:41:51.448Z,1
2022-12-11T21:42:51.607Z,0
2022-12-11T21:45:07.184Z,6
2022-12-11T21:45:37.425Z,2
2022-12-11T21:46:00.773Z,2
2022-12-11T21:46:51.456Z,2
2022-12-11T21:47:51.624Z,2
2022-12-11T21:48:51.429Z,6
2022-12-11T21:49:51.455Z,9
2022-12-11T21:50:51.611Z,3
2022-12-11T21:51:51.453Z,9
2022-12-11T21:52:51.625Z,7
2022-12-11T21:53:51.430Z,6
2022-12-11T21:54:51.413Z,6
2022-12-11T21:55:51.440Z,12
2022-12-11T21:56:51.448Z,6
2022-12-11T21:57:51.600Z,6
2022-12-11T21:58:51.427Z,7
2022-12-11T21:59:51.444Z,4
2022-12-11T22:00:51.493Z,4
2022-12-11T22:01:51.479Z,4
2022-12-11T22:02:51.715Z,11
2022-12-11T22:03:51.456Z,6
2022-12-11T22:04:51.449Z,6
2022-12-11T22:05:51.446Z,6
2022-12-11T22:06:51.496Z,8
2022-12-11T22:07:51.694Z,6
2022-12-11T22:08:51.433Z,5
2022-12-11T22:09:51.440Z,5
2022-12-11T22:10:51.430Z,5
2022-12-11T22:11:55.134Z,5
2022-12-11T22:12:51.630Z,5
2022-12-11T22:13:51.427Z,10
2022-12-11T22:14:51.434Z,10
2022-12-11T22:15:51.433Z,10
2022-12-11T22:16:51.490Z,10
2022-12-11T22:17:51.631Z,10
2022-12-11T22:18:51.424Z,17
2022-12-11T22:19:51.456Z,15
2022-12-11T22:20:51.453Z,8
2022-12-11T22:21:51.425Z,16
2022-12-11T22:22:51.637Z,14
2022-12-11T22:23:51.459Z,18
2022-12-11T22:24:51.453Z,9
2022-12-11T22:25:51.463Z,13
2022-12-11T22:26:51.450Z,20
2022-12-11T22:27:51.628Z,25
2022-12-11T22:28:51.452Z,13
2022-12-11T22:29:51.439Z,22
2022-12-11T22:30:51.503Z,18
2022-12-11T22:31:51.454Z,14
2022-12-11T22:32:51.657Z,13
2022-12-11T22:33:51.448Z,4
2022-12-11T22:34:51.437Z,4
2022-12-11T22:35:51.462Z,4
2022-12-11T22:36:51.461Z,4
2022-12-11T22:37:51.642Z,4
2022-12-11T22:38:51.448Z,2
2022-12-11T22:39:51.475Z,2
2022-12-11T22:40:51.458Z,3
2022-12-11T22:41:51.430Z,2
2022-12-11T22:42:51.616Z,6
2022-12-11T22:43:51.458Z,7
2022-12-11T22:44:51.474Z,7
2022-12-11T22:45:51.537Z,7
2022-12-11T22:46:51.446Z,7
2022-12-11T22:47:51.616Z,7
2022-12-11T22:48:51.455Z,4
2022-12-11T22:49:51.534Z,4
2022-12-11T22:50:51.444Z,4
2022-12-11T22:51:51.443Z,12
2022-12-11T22:52:51.640Z,4
2022-12-11T22:53:51.451Z,14
2022-12-11T22:54:51.470Z,22
2022-12-11T22:55:51.464Z,18
2022-12-11T22:56:51.461Z,23
2022-12-11T22:57:51.644Z,14
2022-12-11T22:58:51.434Z,17
2022-12-11T22:59:51.456Z,17
2022-12-11T23:00:51.459Z,17
2022-12-11T23:01:51.429Z,19
2022-12-11T23:02:51.743Z,17
2022-12-11T23:03:51.529Z,5
2022-12-11T23:04:51.439Z,5
2022-12-11T23:05:51.446Z,5
2022-12-11T23:06:51.435Z,5
2022-12-11T23:07:51.696Z,5
2022-12-11T23:08:51.563Z,6
2022-12-11T23:09:51.447Z,6
2022-12-11T23:10:51.469Z,6
2022-12-11T23:11:51.441Z,6
2022-12-11T23:12:51.622Z,6
2022-12-11T23:13:51.472Z,7
2022-12-11T23:14:51.444Z,7
2022-12-11T23:15:51.436Z,7
2022-12-11T23:16:51.490Z,7
2022-12-11T23:17:51.649Z,7
2022-12-11T23:18:51.463Z,7
2022-12-11T23:19:51.443Z,7
2022-12-11T23:20:51.450Z,7
2022-12-11T23:21:51.442Z,7
2022-12-11T23:22:51.644Z,7
2022-12-11T23:23:51.454Z,0
2022-12-11T23:24:51.523Z,0
2022-12-11T23:25:51.454Z,0
2022-12-11T23:26:51.442Z,0
2022-12-11T23:27:51.648Z,0
2022-12-11T23:28:51.469Z,1
2022-12-11T23:29:51.467Z,1
2022-12-11T23:30:51.505Z,1
2022-12-11T23:31:51.460Z,1
2022-12-11T23:32:51.652Z,1
2022-12-11T23:33:51.466Z,7
2022-12-11T23:34:51.476Z,7
2022-12-11T23:35:51.442Z,7
2022-12-11T23:36:51.455Z,7
2022-12-11T23:37:51.623Z,7
2022-12-11T23:38:54.727Z,1
2022-12-11T23:39:51.453Z,1
2022-12-11T23:40:51.469Z,1
2022-12-11T23:41:51.474Z,1
2022-12-11T23:42:51.630Z,1
2022-12-11T23:43:51.454Z,2
2022-12-11T23:44:51.482Z,2
2022-12-11T23:45:51.464Z,2
2022-12-11T23:46:51.459Z,2
2022-12-11T23:47:51.662Z,2
2022-12-11T23:48:51.498Z,5
2022-12-11T23:49:51.475Z,5
2022-12-11T23:50:51.479Z,5
2022-12-11T23:51:51.479Z,5
2022-12-11T23:52:51.657Z,5
2022-12-11T23:53:51.485Z,3
2022-12-11T23:54:51.461Z,3
2022-12-11T23:55:51.483Z,4
2022-12-11T23:56:51.463Z,3
2022-12-11T23:57:51.630Z,3
2022-12-11T23:58:51.482Z,0
2022-12-11T23:59:51.464Z,0
